Time;durP1;ratioP1;P1;durP2;ratioP2;P2;SDS_P1;SDS_P2;PMS_P1;PMS_P2;Temp;Humidity;BMP_temperature;BMP_pressure;BME280_temperature;BME280_humidity;BME280_pressure;Samples;Min_cycle;Max_cycle;Signal;HPM_P1;HPM_P2
2022/10/08 00:00:47;;;;;;;;;;;8.30;99.90;;;;;;5069046;28;19924;-55
2022/10/08 00:03:16;;;;;;;;;;;8.30;99.90;;;;;;5083427;28;19924;-55
2022/10/08 00:05:53;;;;;;;;;;;8.20;99.90;;;;;;5080057;28;20425;-55
2022/10/08 00:08:21;;;;;;;;;;;8.20;99.90;;;;;;5085868;28;19928;-56
2022/10/08 00:10:53;;;;;;;;;;;8.20;99.90;;;;;;5087993;28;20398;-55
2022/10/08 00:13:21;;;;;;;;;;;8.20;99.90;;;;;;5088703;28;19924;-55
2022/10/08 00:15:48;;;;;;;;;;;8.10;99.90;;;;;;5085523;28;20486;-55
2022/10/08 00:18:16;;;;;;;;;;;8.10;99.90;;;;;;5056640;28;19924;-55
2022/10/08 00:20:43;;;;;;;;;;;8.10;99.90;;;;;;5079866;28;19931;-55
2022/10/08 00:23:11;;;;;;;;;;;8.10;99.90;;;;;;5089162;28;19939;-55
2022/10/08 00:25:42;;;;;;;;;;;8.20;99.90;;;;;;5075172;28;19924;-55
2022/10/08 00:28:12;;;;;;;;;;;8.20;99.90;;;;;;5074674;28;19946;-55
2022/10/08 00:30:40;;;;;;;;;;;8.20;99.90;;;;;;5075778;28;19940;-55
2022/10/08 00:33:09;;;;;;;;;;;8.20;99.90;;;;;;5087913;28;20502;-55
2022/10/08 00:35:37;;;;;;;;;;;8.30;99.90;;;;;;5093492;28;19926;-55
2022/10/08 00:38:06;;;;;;;;;;;8.20;99.90;;;;;;5070960;28;20293;-55
2022/10/08 00:40:40;;;;;;;;;;;8.20;99.90;;;;;;5081810;28;20303;-55
2022/10/08 00:43:15;;;;;;;;;;;8.20;99.90;;;;;;5071980;28;19932;-55
2022/10/08 00:45:44;;;;;;;;;;;8.20;99.90;;;;;;5071218;28;19924;-54
2022/10/08 00:48:16;;;;;;;;;;;8.10;99.90;;;;;;5075115;28;20404;-55
2022/10/08 00:50:43;;;;;;;;;;;8.10;99.90;;;;;;5077003;28;19924;-55
2022/10/08 00:53:10;;;;;;;;;;;8.00;99.90;;;;;;5080645;28;19931;-55
2022/10/08 00:55:39;;;;;;;;;;;8.00;99.90;;;;;;5070915;28;19928;-55
2022/10/08 00:58:12;;;;;;;;;;;7.90;99.90;;;;;;5072314;28;19924;-54
2022/10/08 01:00:40;;;;;;;;;;;7.90;99.90;;;;;;5082232;28;19943;-55
2022/10/08 01:03:07;;;;;;;;;;;7.80;99.90;;;;;;5072134;28;20362;-55
2022/10/08 01:05:35;;;;;;;;;;;7.80;99.90;;;;;;5081543;28;19924;-55
2022/10/08 01:08:08;;;;;;;;;;;7.80;99.90;;;;;;5088522;28;19924;-55
2022/10/08 01:10:41;;;;;;;;;;;7.70;99.90;;;;;;5077762;28;19924;-54
2022/10/08 01:13:24;;;;;;;;;;;7.70;99.90;;;;;;5072457;28;19935;-55
2022/10/08 01:16:05;;;;;;;;;;;7.70;99.90;;;;;;5078094;28;19946;-56
2022/10/08 01:18:42;;;;;;;;;;;7.60;99.90;;;;;;5077450;28;19924;-55
2022/10/08 01:21:16;;;;;;;;;;;7.60;99.90;;;;;;5073962;28;19924;-55
2022/10/08 01:23:55;;;;;;;;;;;7.70;99.90;;;;;;5087273;28;20387;-55
2022/10/08 01:26:34;;;;;;;;;;;7.60;99.90;;;;;;5073734;28;19931;-55
2022/10/08 01:29:04;;;;;;;;;;;7.60;99.90;;;;;;5070666;28;19939;-55
2022/10/08 01:31:38;;;;;;;;;;;7.70;99.90;;;;;;5082176;28;19932;-55
2022/10/08 01:34:07;;;;;;;;;;;7.60;99.90;;;;;;5080037;28;19925;-54
2022/10/08 01:36:42;;;;;;;;;;;7.70;99.90;;;;;;5073508;28;19931;-55
2022/10/08 01:39:11;;;;;;;;;;;7.60;99.90;;;;;;5084145;28;19928;-55
2022/10/08 01:41:39;;;;;;;;;;;7.60;99.90;;;;;;5089378;28;19943;-55
2022/10/08 01:44:11;;;;;;;;;;;7.70;99.90;;;;;;5075681;28;19924;-55
2022/10/08 01:46:41;;;;;;;;;;;7.60;99.90;;;;;;5074804;28;19928;-54
2022/10/08 01:49:10;;;;;;;;;;;7.60;99.90;;;;;;5073246;28;19928;-55
2022/10/08 01:51:40;;;;;;;;;;;7.60;99.90;;;;;;5076857;28;19924;-55
2022/10/08 01:54:09;;;;;;;;;;;7.60;99.90;;;;;;5087355;28;19929;-55
2022/10/08 01:56:38;;;;;;;;;;;7.50;99.90;;;;;;5075966;28;19935;-55
2022/10/08 01:59:12;;;;;;;;;;;7.50;99.90;;;;;;5090870;28;20390;-55
2022/10/08 02:01:48;;;;;;;;;;;7.50;99.90;;;;;;5080194;28;19931;-55
2022/10/08 02:04:32;;;;;;;;;;;7.50;99.90;;;;;;5072698;28;19928;-55
2022/10/08 02:07:01;;;;;;;;;;;7.50;99.90;;;;;;5073373;28;19931;-55
2022/10/08 02:09:30;;;;;;;;;;;7.50;99.90;;;;;;5073587;28;19928;-56
2022/10/08 02:11:57;;;;;;;;;;;7.50;99.90;;;;;;5073032;28;19950;-56
2022/10/08 02:14:26;;;;;;;;;;;7.50;99.90;;;;;;5072780;28;19925;-55
2022/10/08 02:16:59;;;;;;;;;;;7.50;99.90;;;;;;5073222;28;19925;-55
2022/10/08 02:19:26;;;;;;;;;;;7.50;99.90;;;;;;5072543;28;19931;-55
2022/10/08 02:21:55;;;;;;;;;;;7.50;99.90;;;;;;5084114;28;20300;-55
2022/10/08 02:24:26;;;;;;;;;;;7.60;99.90;;;;;;5113733;28;19924;-55
2022/10/08 02:26:56;;;;;;;;;;;7.60;99.90;;;;;;5110401;28;20321;-54
2022/10/08 02:29:28;;;;;;;;;;;7.60;99.90;;;;;;5091768;28;19931;-55
2022/10/08 02:31:57;;;;;;;;;;;7.60;99.90;;;;;;5081764;28;19931;-55
2022/10/08 02:34:29;;;;;;;;;;;7.60;99.90;;;;;;5072930;28;19931;-55
2022/10/08 02:37:00;;;;;;;;;;;7.70;99.90;;;;;;5073452;28;20434;-55
2022/10/08 02:39:29;;;;;;;;;;;7.70;99.90;;;;;;5082753;28;19925;-55
2022/10/08 02:41:59;;;;;;;;;;;7.70;99.90;;;;;;5093123;28;20030;-55
2022/10/08 02:44:33;;;;;;;;;;;7.70;99.90;;;;;;5089560;28;20416;-55
2022/10/08 02:47:01;;;;;;;;;;;7.70;99.90;;;;;;5092985;28;19931;-55
2022/10/08 02:49:30;;;;;;;;;;;7.60;99.90;;;;;;5092955;28;19935;-55
2022/10/08 02:52:00;;;;;;;;;;;7.70;99.90;;;;;;5095063;28;19924;-55
2022/10/08 02:54:31;;;;;;;;;;;7.70;99.90;;;;;;5113208;28;19931;-55
2022/10/08 02:57:21;;;;;;;;;;;7.70;99.90;;;;;;5088618;28;19928;-55
2022/10/08 02:59:49;;;;;;;;;;;7.70;99.90;;;;;;5071281;28;19936;-55
2022/10/08 03:02:21;;;;;;;;;;;7.70;99.90;;;;;;5074612;28;20015;-55
2022/10/08 03:04:58;;;;;;;;;;;7.70;99.90;;;;;;5092809;28;19932;-55
2022/10/08 03:07:27;;;;;;;;;;;7.70;99.90;;;;;;5091645;28;20296;-55
2022/10/08 03:09:56;;;;;;;;;;;7.70;99.90;;;;;;5073577;28;19925;-55
2022/10/08 03:12:24;;;;;;;;;;;7.70;99.90;;;;;;5072242;28;19931;-55
2022/10/08 03:14:51;;;;;;;;;;;7.80;99.90;;;;;;5072569;28;19924;-55
2022/10/08 03:17:22;;;;;;;;;;;7.80;99.90;;;;;;5072229;28;19932;-55
2022/10/08 03:19:50;;;;;;;;;;;7.80;99.90;;;;;;5072172;28;19929;-55
2022/10/08 03:22:18;;;;;;;;;;;7.80;99.90;;;;;;5088360;28;19931;-55
2022/10/08 03:24:45;;;;;;;;;;;7.90;99.90;;;;;;5112590;28;19924;-55
2022/10/08 03:27:12;;;;;;;;;;;7.90;99.90;;;;;;5103680;28;20579;-54
2022/10/08 03:29:40;;;;;;;;;;;8.00;99.90;;;;;;5092205;28;19931;-55
2022/10/08 03:32:07;;;;;;;;;;;8.00;99.90;;;;;;5078389;28;19925;-55
2022/10/08 03:34:34;;;;;;;;;;;8.00;99.90;;;;;;5089554;28;19924;-54
2022/10/08 03:37:02;;;;;;;;;;;8.00;99.90;;;;;;5092028;28;19935;-55
2022/10/08 03:39:29;;;;;;;;;;;8.10;99.90;;;;;;5089786;28;20334;-54
2022/10/08 03:41:57;;;;;;;;;;;8.10;99.90;;;;;;5071125;28;19924;-55
2022/10/08 03:44:24;;;;;;;;;;;8.00;99.90;;;;;;5071993;28;20295;-55
2022/10/08 03:46:51;;;;;;;;;;;8.00;99.90;;;;;;5071232;28;20030;-55
2022/10/08 03:49:19;;;;;;;;;;;8.00;99.90;;;;;;5071916;28;19925;-55
2022/10/08 03:51:46;;;;;;;;;;;8.00;99.90;;;;;;5071924;28;19925;-54
2022/10/08 03:54:13;;;;;;;;;;;7.90;99.90;;;;;;5089126;28;19924;-54
2022/10/08 03:56:41;;;;;;;;;;;7.90;99.90;;;;;;5086192;28;19931;-54
2022/10/08 03:59:08;;;;;;;;;;;7.90;99.90;;;;;;5076563;28;19928;-54
2022/10/08 04:01:35;;;;;;;;;;;7.90;99.90;;;;;;5090117;28;19924;-54
2022/10/08 04:04:03;;;;;;;;;;;7.80;99.90;;;;;;5092075;28;19924;-54
2022/10/08 04:06:30;;;;;;;;;;;7.80;99.90;;;;;;5088145;28;19928;-55
2022/10/08 04:09:00;;;;;;;;;;;7.70;99.90;;;;;;5071613;28;19935;-55
2022/10/08 04:11:27;;;;;;;;;;;7.70;99.90;;;;;;5070834;28;19924;-55
2022/10/08 04:13:55;;;;;;;;;;;7.70;99.90;;;;;;5071805;28;19931;-54
2022/10/08 04:16:22;;;;;;;;;;;7.70;99.90;;;;;;5071550;28;19924;-55
2022/10/08 04:18:50;;;;;;;;;;;7.60;99.90;;;;;;5085312;28;20327;-55
2022/10/08 04:21:17;;;;;;;;;;;7.60;99.90;;;;;;5091812;28;19924;-55
2022/10/08 04:23:45;;;;;;;;;;;7.60;99.90;;;;;;5108861;28;20398;-55
2022/10/08 04:26:13;;;;;;;;;;;7.50;99.90;;;;;;5112108;28;19924;-55
2022/10/08 04:28:43;;;;;;;;;;;7.50;99.90;;;;;;5112014;28;20298;-55
2022/10/08 04:31:11;;;;;;;;;;;7.50;99.90;;;;;;5111801;28;19927;-55
2022/10/08 04:33:39;;;;;;;;;;;7.50;99.90;;;;;;5112014;28;19930;-55
2022/10/08 04:36:07;;;;;;;;;;;7.50;99.90;;;;;;5112002;28;19931;-54
2022/10/08 04:38:34;;;;;;;;;;;7.40;99.90;;;;;;5111870;28;19931;-55
2022/10/08 04:41:06;;;;;;;;;;;7.40;99.90;;;;;;5111968;28;19931;-55
2022/10/08 04:43:34;;;;;;;;;;;7.40;99.90;;;;;;5111938;28;19931;-55
2022/10/08 04:46:02;;;;;;;;;;;7.40;99.90;;;;;;5111861;28;19924;-58
2022/10/08 04:48:30;;;;;;;;;;;7.40;99.90;;;;;;5088848;28;20268;-55
2022/10/08 04:50:58;;;;;;;;;;;7.30;99.90;;;;;;5080639;28;20371;-55
2022/10/08 04:53:26;;;;;;;;;;;7.40;99.90;;;;;;5101462;28;19952;-55
2022/10/08 04:55:54;;;;;;;;;;;7.40;99.90;;;;;;5108584;28;19924;-56
2022/10/08 04:58:24;;;;;;;;;;;7.50;99.90;;;;;;5097627;28;19924;-55
2022/10/08 05:00:51;;;;;;;;;;;7.40;99.90;;;;;;5091729;28;19931;-55
2022/10/08 05:03:19;;;;;;;;;;;7.50;99.90;;;;;;5079452;28;19935;-55
2022/10/08 05:05:46;;;;;;;;;;;7.50;99.90;;;;;;5086454;28;20551;-55
2022/10/08 05:08:17;;;;;;;;;;;7.50;99.90;;;;;;5103824;27;19997;-56
2022/10/08 05:10:48;;;;;;;;;;;7.50;99.90;;;;;;5108808;28;20441;-55
2022/10/08 05:13:16;;;;;;;;;;;7.60;99.90;;;;;;5099885;28;19931;-55
2022/10/08 05:15:43;;;;;;;;;;;7.60;99.90;;;;;;5084737;28;20323;-55
2022/10/08 05:18:11;;;;;;;;;;;7.60;99.90;;;;;;5085422;28;20291;-55
2022/10/08 05:20:38;;;;;;;;;;;8.80;99.90;;;;;;5067313;28;19924;-56
2022/10/08 05:23:06;;;;;;;;;;;7.60;99.90;;;;;;5088797;28;19935;-55
2022/10/08 05:25:34;;;;;;;;;;;7.50;99.90;;;;;;5108605;28;20515;-54
2022/10/08 05:28:02;;;;;;;;;;;7.60;99.90;;;;;;5091801;28;19924;-54
2022/10/08 05:30:30;;;;;;;;;;;7.70;99.90;;;;;;5068082;28;19928;-54
2022/10/08 05:32:57;;;;;;;;;;;8.70;99.90;;;;;;5075549;28;19928;-54
2022/10/08 05:35:24;;;;;;;;;;;7.60;99.90;;;;;;5081249;28;19932;-54
2022/10/08 05:37:52;;;;;;;;;;;7.70;99.90;;;;;;5085804;28;19931;-54
2022/10/08 05:40:19;;;;;;;;;;;7.80;99.90;;;;;;5088101;28;20387;-54
2022/10/08 05:42:47;;;;;;;;;;;7.80;99.90;;;;;;5074579;28;19932;-54
2022/10/08 05:45:15;;;;;;;;;;;7.70;99.90;;;;;;5108161;28;19924;-54
2022/10/08 05:47:42;;;;;;;;;;;7.70;99.90;;;;;;5095533;28;20359;-54
2022/10/08 05:50:10;;;;;;;;;;;7.80;99.90;;;;;;5067497;28;19929;-54
2022/10/08 05:52:37;;;;;;;;;;;7.80;99.90;;;;;;5077010;28;19946;-54
2022/10/08 05:55:05;;;;;;;;;;;7.80;99.90;;;;;;5098199;28;19924;-54
2022/10/08 05:57:32;;;;;;;;;;;7.80;99.90;;;;;;5082462;28;19931;-54
2022/10/08 06:00:00;;;;;;;;;;;7.90;99.90;;;;;;5073020;28;19924;-54
2022/10/08 06:02:38;;;;;;;;;;;7.80;99.90;;;;;;5066797;28;19924;-54
2022/10/08 06:05:06;;;;;;;;;;;7.80;99.90;;;;;;5077939;28;19990;-54
2022/10/08 06:07:33;;;;;;;;;;;7.80;99.90;;;;;;5075430;28;20286;-54
2022/10/08 06:10:01;;;;;;;;;;;7.80;99.90;;;;;;5106086;28;19923;-54
2022/10/08 06:12:28;;;;;;;;;;;7.80;99.90;;;;;;5076616;28;19928;-54
2022/10/08 06:14:56;;;;;;;;;;;7.80;99.90;;;;;;5106777;28;19924;-54
2022/10/08 06:17:23;;;;;;;;;;;7.80;99.90;;;;;;5090779;28;19932;-54
2022/10/08 06:19:51;;;;;;;;;;;7.80;99.90;;;;;;5081681;28;19928;-54
2022/10/08 06:22:18;;;;;;;;;;;7.80;99.90;;;;;;5074975;28;19923;-54
2022/10/08 06:24:45;;;;;;;;;;;7.80;99.90;;;;;;5085402;28;19935;-55
2022/10/08 06:27:13;;;;;;;;;;;7.70;99.90;;;;;;5067542;28;20118;-55
2022/10/08 06:29:40;;;;;;;;;;;7.70;99.90;;;;;;5085400;28;19928;-54
2022/10/08 06:32:08;;;;;;;;;;;7.70;99.90;;;;;;5077414;28;19928;-55
2022/10/08 06:34:35;;;;;;;;;;;7.60;99.90;;;;;;5077151;28;19932;-54
2022/10/08 06:37:03;;;;;;;;;;;7.60;99.90;;;;;;5066338;28;19931;-54
2022/10/08 06:39:30;;;;;;;;;;;7.60;99.90;;;;;;5066457;28;19928;-55
2022/10/08 06:41:58;;;;;;;;;;;7.60;99.90;;;;;;5073440;28;19925;-55
2022/10/08 06:44:35;;;;;;;;;;;7.60;99.90;;;;;;5084932;28;19924;-55
2022/10/08 06:47:02;;;;;;;;;;;7.70;99.90;;;;;;5078432;28;19932;-54
2022/10/08 06:49:30;;;;;;;;;;;7.70;99.90;;;;;;5066995;28;19928;-54
2022/10/08 06:51:58;;;;;;;;;;;7.70;99.90;;;;;;5078507;28;19978;-55
2022/10/08 06:54:26;;;;;;;;;;;7.70;99.90;;;;;;5089004;28;20265;-55
2022/10/08 06:56:54;;;;;;;;;;;7.80;99.90;;;;;;5083092;28;19925;-55
2022/10/08 06:59:21;;;;;;;;;;;7.80;99.90;;;;;;5085037;28;19931;-54
2022/10/08 07:01:49;;;;;;;;;;;7.80;99.90;;;;;;5083646;28;20299;-54
2022/10/08 07:04:17;;;;;;;;;;;7.80;99.90;;;;;;5087038;28;20300;-54
2022/10/08 07:06:44;;;;;;;;;;;7.90;99.90;;;;;;5080798;28;19925;-54
2022/10/08 07:09:12;;;;;;;;;;;7.90;99.90;;;;;;5097629;28;20755;-54
2022/10/08 07:11:39;;;;;;;;;;;7.90;99.90;;;;;;5065488;28;20202;-54
2022/10/08 07:14:07;;;;;;;;;;;7.90;99.90;;;;;;5077867;28;19935;-54
2022/10/08 07:16:34;;;;;;;;;;;8.00;99.90;;;;;;5069446;28;19924;-54
2022/10/08 07:19:02;;;;;;;;;;;8.00;99.90;;;;;;5073897;28;19935;-54
2022/10/08 07:21:29;;;;;;;;;;;8.00;99.90;;;;;;5080837;28;19924;-54
2022/10/08 07:23:58;;;;;;;;;;;8.10;99.90;;;;;;5092801;28;20395;-55
2022/10/08 07:26:28;;;;;;;;;;;8.10;99.90;;;;;;5081314;28;20291;-55
2022/10/08 07:28:56;;;;;;;;;;;8.20;99.90;;;;;;5072232;28;19928;-54
2022/10/08 07:31:26;;;;;;;;;;;8.20;99.90;;;;;;5070892;28;19939;-54
2022/10/08 07:33:55;;;;;;;;;;;8.30;99.90;;;;;;5066770;28;19929;-54
2022/10/08 07:36:23;;;;;;;;;;;8.30;99.90;;;;;;5067860;28;19925;-54
2022/10/08 07:38:54;;;;;;;;;;;8.40;99.90;;;;;;5083051;28;19939;-55
2022/10/08 07:41:22;;;;;;;;;;;8.40;99.90;;;;;;5078687;28;19937;-55
2022/10/08 07:43:51;;;;;;;;;;;8.40;99.90;;;;;;5088659;28;19954;-55
2022/10/08 07:46:19;;;;;;;;;;;8.50;99.90;;;;;;5067350;28;19935;-55
2022/10/08 07:48:46;;;;;;;;;;;8.50;99.90;;;;;;5079568;28;19924;-55
2022/10/08 07:51:15;;;;;;;;;;;8.60;99.90;;;;;;5066631;28;19933;-56
2022/10/08 07:53:43;;;;;;;;;;;8.60;99.90;;;;;;5098623;28;19931;-55
2022/10/08 07:56:12;;;;;;;;;;;8.60;99.90;;;;;;5066194;28;20346;-55
2022/10/08 07:58:40;;;;;;;;;;;8.70;99.90;;;;;;5087845;28;20295;-55
2022/10/08 08:01:11;;;;;;;;;;;8.80;99.90;;;;;;5065766;28;20281;-55
2022/10/08 08:03:39;;;;;;;;;;;8.80;99.90;;;;;;5073996;28;20260;-55
2022/10/08 08:06:08;;;;;;;;;;;8.90;99.90;;;;;;5069806;28;19924;-55
2022/10/08 08:08:36;;;;;;;;;;;9.00;99.90;;;;;;5079911;28;19931;-54
2022/10/08 08:11:04;;;;;;;;;;;9.10;99.90;;;;;;5085069;28;20375;-57
2022/10/08 08:13:33;;;;;;;;;;;9.10;99.90;;;;;;5092609;28;20421;-55
2022/10/08 08:16:05;;;;;;;;;;;9.20;99.90;;;;;;5100408;28;19928;-55
2022/10/08 08:18:34;;;;;;;;;;;9.30;99.90;;;;;;5084826;28;19924;-55
2022/10/08 08:21:03;;;;;;;;;;;9.30;99.90;;;;;;5069835;28;19928;-54
2022/10/08 08:23:31;;;;;;;;;;;9.40;99.90;;;;;;5087819;28;19931;-55
2022/10/08 08:25:59;;;;;;;;;;;9.40;99.90;;;;;;5085192;28;19924;-54
2022/10/08 08:28:27;;;;;;;;;;;9.50;99.90;;;;;;5077726;28;20521;-55
2022/10/08 08:31:05;;;;;;;;;;;9.50;99.90;;;;;;5063421;28;19931;-55
2022/10/08 08:33:32;;;;;;;;;;;9.60;99.90;;;;;;5069283;28;19928;-54
2022/10/08 08:35:59;;;;;;;;;;;9.70;99.90;;;;;;5070455;28;20406;-55
2022/10/08 08:38:27;;;;;;;;;;;9.70;99.90;;;;;;5082096;28;19947;-54
2022/10/08 08:41:03;;;;;;;;;;;9.80;99.90;;;;;;5086697;28;19951;-54
2022/10/08 08:43:39;;;;;;;;;;;9.90;99.90;;;;;;5095214;28;19928;-54
2022/10/08 08:46:06;;;;;;;;;;;9.90;99.90;;;;;;5087514;28;19924;-54
2022/10/08 08:48:35;;;;;;;;;;;9.90;99.90;;;;;;5074390;28;19935;-54
2022/10/08 08:51:03;;;;;;;;;;;10.00;99.90;;;;;;5078442;28;19934;-54
2022/10/08 08:53:32;;;;;;;;;;;10.00;99.90;;;;;;5098217;28;19931;-55
2022/10/08 08:56:02;;;;;;;;;;;10.10;99.90;;;;;;5102793;28;19946;-55
2022/10/08 08:58:33;;;;;;;;;;;10.20;99.90;;;;;;5087189;28;20424;-55
2022/10/08 09:01:13;;;;;;;;;;;10.20;99.90;;;;;;5075827;28;19931;-55
2022/10/08 09:03:49;;;;;;;;;;;10.40;99.90;;;;;;5074189;28;19935;-55
2022/10/08 09:06:21;;;;;;;;;;;10.40;99.90;;;;;;5070217;28;19935;-55
2022/10/08 09:08:52;;;;;;;;;;;10.50;99.90;;;;;;5078298;28;19931;-55
2022/10/08 09:11:20;;;;;;;;;;;10.60;99.90;;;;;;5067447;28;19924;-55
2022/10/08 09:13:50;;;;;;;;;;;10.70;99.90;;;;;;5077154;28;20422;-55
2022/10/08 09:16:18;;;;;;;;;;;10.80;99.90;;;;;;5094921;28;19929;-56
2022/10/08 09:18:50;;;;;;;;;;;10.90;99.90;;;;;;5075697;28;19951;-55
2022/10/08 09:21:18;;;;;;;;;;;10.90;99.90;;;;;;5068203;28;19925;-55
2022/10/08 09:23:46;;;;;;;;;;;10.90;99.90;;;;;;5101926;28;19927;-55
2022/10/08 09:26:18;;;;;;;;;;;11.00;99.90;;;;;;5107189;28;20375;-55
2022/10/08 09:28:48;;;;;;;;;;;11.10;99.90;;;;;;5107959;28;19931;-55
2022/10/08 09:31:21;;;;;;;;;;;11.20;99.90;;;;;;5100189;28;20375;-55
2022/10/08 09:34:07;;;;;;;;;;;11.30;99.90;;;;;;5074504;28;19935;-56
2022/10/08 09:36:42;;;;;;;;;;;11.40;99.90;;;;;;5067112;28;19924;-55
2022/10/08 09:39:17;;;;;;;;;;;11.50;99.90;;;;;;5071343;28;19924;-55
2022/10/08 09:41:46;;;;;;;;;;;11.50;99.90;;;;;;5079498;28;19939;-55
2022/10/08 09:44:15;;;;;;;;;;;11.60;99.90;;;;;;5066386;28;19928;-55
2022/10/08 09:46:44;;;;;;;;;;;11.70;99.90;;;;;;5075758;28;19925;-56
2022/10/08 09:49:26;;;;;;;;;;;11.70;99.90;;;;;;5061546;28;20311;-55
2022/10/08 09:51:56;;;;;;;;;;;11.80;99.90;;;;;;5069564;28;19931;-55
2022/10/08 09:54:26;;;;;;;;;;;11.80;99.90;;;;;;5065562;28;19924;-55
2022/10/08 09:56:55;;;;;;;;;;;11.90;99.90;;;;;;5081305;28;20291;-55
2022/10/08 09:59:24;;;;;;;;;;;11.90;99.90;;;;;;5073136;28;19951;-55
2022/10/08 10:01:52;;;;;;;;;;;12.00;99.90;;;;;;5074477;28;19932;-56
2022/10/08 10:04:49;;;;;;;;;;;12.10;99.90;;;;;;5073158;28;19931;-55
2022/10/08 10:07:17;;;;;;;;;;;12.10;99.90;;;;;;5069041;28;19931;-55
2022/10/08 10:09:46;;;;;;;;;;;12.20;99.90;;;;;;5076354;28;20284;-55
2022/10/08 10:12:23;;;;;;;;;;;12.30;99.90;;;;;;5072121;28;20143;-56
2022/10/08 10:14:58;;;;;;;;;;;12.40;99.90;;;;;;5088766;28;19931;-56
2022/10/08 10:17:26;;;;;;;;;;;12.50;99.90;;;;;;5077595;28;19925;-56
2022/10/08 10:19:59;;;;;;;;;;;12.70;99.90;;;;;;5072884;28;20323;-55
2022/10/08 10:22:31;;;;;;;;;;;12.80;99.90;;;;;;5084973;28;20427;-55
2022/10/08 10:25:01;;;;;;;;;;;12.90;99.90;;;;;;5068343;28;20296;-55
2022/10/08 10:27:29;;;;;;;;;;;13.00;99.90;;;;;;5072529;28;19943;-55
2022/10/08 10:29:56;;;;;;;;;;;13.10;99.90;;;;;;5090210;28;19924;-55
2022/10/08 10:32:31;;;;;;;;;;;13.10;99.90;;;;;;5090207;28;19924;-55
2022/10/08 10:35:05;;;;;;;;;;;13.20;99.90;;;;;;5103801;28;19923;-55
2022/10/08 10:37:36;;;;;;;;;;;13.30;99.90;;;;;;5106917;28;19931;-55
2022/10/08 10:40:09;;;;;;;;;;;13.30;99.90;;;;;;5087039;28;19939;-55
2022/10/08 10:42:49;;;;;;;;;;;13.50;99.90;;;;;;5085140;28;19948;-56
2022/10/08 10:45:21;;;;;;;;;;;13.50;99.90;;;;;;5102722;28;19927;-55
2022/10/08 10:47:49;;;;;;;;;;;13.50;99.90;;;;;;5104306;28;20432;-55
2022/10/08 10:50:23;;;;;;;;;;;13.70;99.90;;;;;;5089618;28;19924;-55
2022/10/08 10:53:04;;;;;;;;;;;13.60;99.90;;;;;;5099142;28;19927;-55
2022/10/08 10:56:04;;;;;;;;;;;13.80;99.90;;;;;;5098249;28;19930;-56
2022/10/08 10:58:50;;;;;;;;;;;13.90;99.90;;;;;;5059478;28;19924;-56
2022/10/08 11:01:29;;;;;;;;;;;14.10;99.90;;;;;;5089775;28;19939;-56
2022/10/08 11:04:02;;;;;;;;;;;14.10;99.90;;;;;;5089128;28;19928;-55
2022/10/08 11:06:58;;;;;;;;;;;14.10;99.90;;;;;;5089542;28;20295;-55
2022/10/08 11:09:32;;;;;;;;;;;14.10;99.90;;;;;;5089370;28;19931;-55
2022/10/08 11:12:19;;;;;;;;;;;14.20;99.90;;;;;;5072777;28;19935;-55
2022/10/08 11:14:56;;;;;;;;;;;14.10;99.90;;;;;;5093591;28;19923;-55
2022/10/08 11:17:28;;;;;;;;;;;14.10;99.90;;;;;;5088998;28;19928;-55
2022/10/08 11:20:18;;;;;;;;;;;14.10;99.90;;;;;;5089062;28;19924;-55
2022/10/08 11:22:52;;;;;;;;;;;14.30;99.90;;;;;;5096550;28;19923;-55
2022/10/08 11:25:26;;;;;;;;;;;14.60;99.90;;;;;;5103931;28;20335;-55
2022/10/08 11:28:09;;;;;;;;;;;14.90;99.90;;;;;;5074953;28;19928;-56
2022/10/08 11:30:49;;;;;;;;;;;15.20;99.90;;;;;;5087499;28;19932;-55
2022/10/08 11:33:17;;;;;;;;;;;15.50;99.90;;;;;;5089011;28;19924;-55
2022/10/08 11:35:53;;;;;;;;;;;15.90;99.90;;;;;;5087322;28;19955;-56
2022/10/08 11:38:29;;;;;;;;;;;16.10;99.90;;;;;;5087531;28;20188;-55
2022/10/08 11:41:04;;;;;;;;;;;16.40;99.90;;;;;;5082828;28;19924;-55
2022/10/08 11:43:32;;;;;;;;;;;16.60;99.90;;;;;;5087203;28;20372;-55
2022/10/08 11:46:18;;;;;;;;;;;16.80;99.90;;;;;;5109312;28;19935;-55
2022/10/08 11:48:46;;;;;;;;;;;16.90;99.90;;;;;;5095868;28;19924;-55
2022/10/08 11:51:19;;;;;;;;;;;17.10;99.90;;;;;;5088788;28;20276;-55
2022/10/08 11:54:05;;;;;;;;;;;17.20;99.90;;;;;;5092217;28;19924;-55
2022/10/08 11:56:34;;;;;;;;;;;17.40;99.90;;;;;;5089400;28;19929;-55
2022/10/08 11:59:17;;;;;;;;;;;17.60;99.90;;;;;;5100087;28;19928;-55
2022/10/08 12:01:49;;;;;;;;;;;17.90;99.90;;;;;;5109018;28;19931;-55
2022/10/08 12:04:21;;;;;;;;;;;18.30;99.90;;;;;;5100824;28;19924;-55
2022/10/08 12:06:59;;;;;;;;;;;18.50;99.90;;;;;;5088798;28;19935;-56
2022/10/08 12:09:46;;;;;;;;;;;18.60;99.70;;;;;;5092634;28;19924;-55
2022/10/08 12:12:16;;;;;;;;;;;18.40;99.90;;;;;;5077736;28;19936;-56
2022/10/08 12:14:44;;;;;;;;;;;18.40;99.90;;;;;;5095260;28;19924;-56
2022/10/08 12:17:12;;;;;;;;;;;18.30;99.90;;;;;;5112777;28;19993;-56
2022/10/08 12:19:42;;;;;;;;;;;17.80;99.00;;;;;;5091614;28;19924;-55
2022/10/08 12:22:13;;;;;;;;;;;17.60;99.90;;;;;;5078128;28;19923;-56
2022/10/08 12:24:42;;;;;;;;;;;17.60;99.90;;;;;;5112652;28;20523;-56
2022/10/08 12:27:16;;;;;;;;;;;17.90;99.90;;;;;;5094040;28;20384;-56
2022/10/08 12:30:04;;;;;;;;;;;18.40;99.90;;;;;;5092629;28;19924;-56
2022/10/08 12:32:49;;;;;;;;;;;18.60;99.90;;;;;;5091013;28;19935;-56
2022/10/08 12:35:25;;;;;;;;;;;19.00;99.90;;;;;;5108423;28;19924;-56
2022/10/08 12:37:58;;;;;;;;;;;19.40;99.90;;;;;;5106612;28;19924;-56
2022/10/08 12:40:28;;;;;;;;;;;19.70;99.80;;;;;;5092284;28;20330;-56
2022/10/08 12:43:10;;;;;;;;;;;20.10;99.90;;;;;;5073608;28;19931;-56
2022/10/08 12:45:46;;;;;;;;;;;20.00;95.90;;;;;;5109379;28;19924;-57
2022/10/08 12:48:33;;;;;;;;;;;19.70;96.20;;;;;;5103570;28;19924;-57
2022/10/08 12:51:20;;;;;;;;;;;19.60;95.80;;;;;;5092120;28;19931;-56
2022/10/08 12:53:48;;;;;;;;;;;19.70;96.20;;;;;;5109082;28;19924;-56
2022/10/08 12:56:25;;;;;;;;;;;20.10;95.80;;;;;;5106072;28;19928;-57
2022/10/08 12:58:54;;;;;;;;;;;20.40;96.60;;;;;;5085483;28;19932;-56
2022/10/08 13:01:22;;;;;;;;;;;20.60;94.30;;;;;;5091683;28;19931;-57
2022/10/08 13:04:08;;;;;;;;;;;21.00;95.20;;;;;;5095023;28;19923;-56
2022/10/08 13:06:36;;;;;;;;;;;21.30;93.60;;;;;;5112297;28;19924;-58
2022/10/08 13:09:21;;;;;;;;;;;21.10;91.20;;;;;;5111837;28;19924;-56
2022/10/08 13:11:48;;;;;;;;;;;20.80;92.50;;;;;;5097691;28;19924;-57
2022/10/08 13:14:33;;;;;;;;;;;20.80;92.30;;;;;;5092321;28;19968;-56
2022/10/08 13:17:02;;;;;;;;;;;21.00;93.50;;;;;;5077257;28;19929;-57
2022/10/08 13:19:30;;;;;;;;;;;21.20;92.30;;;;;;5073212;28;19935;-57
2022/10/08 13:22:03;;;;;;;;;;;21.00;91.10;;;;;;5071318;28;20442;-57
2022/10/08 13:24:36;;;;;;;;;;;20.80;91.80;;;;;;5075248;28;19932;-57
2022/10/08 13:27:05;;;;;;;;;;;20.40;91.80;;;;;;5074226;28;19932;-57
2022/10/08 13:29:33;;;;;;;;;;;20.30;93.30;;;;;;5070962;28;19935;-57
2022/10/08 13:32:17;;;;;;;;;;;20.30;93.10;;;;;;5077232;28;19924;-57
2022/10/08 13:34:46;;;;;;;;;;;20.40;92.90;;;;;;5082672;28;19928;-57
2022/10/08 13:37:20;;;;;;;;;;;20.70;92.70;;;;;;5071660;28;20451;-57
2022/10/08 13:39:56;;;;;;;;;;;21.00;94.10;;;;;;5087484;28;20760;-58
2022/10/08 13:42:26;;;;;;;;;;;21.10;91.40;;;;;;5072453;28;20083;-58
2022/10/08 13:44:53;;;;;;;;;;;21.00;91.10;;;;;;5073521;28;19924;-58
2022/10/08 13:47:21;;;;;;;;;;;21.00;92.90;;;;;;5074053;28;19924;-59
2022/10/08 13:49:48;;;;;;;;;;;21.50;89.40;;;;;;5078393;28;19924;-58
2022/10/08 13:52:17;;;;;;;;;;;21.50;89.80;;;;;;5081309;28;20439;-58
2022/10/08 13:54:45;;;;;;;;;;;21.30;90.20;;;;;;5097861;28;20161;-59
2022/10/08 13:57:12;;;;;;;;;;;21.10;90.30;;;;;;5071570;28;19924;-57
2022/10/08 13:59:40;;;;;;;;;;;20.60;89.60;;;;;;5090283;28;20287;-55
2022/10/08 14:02:09;;;;;;;;;;;19.80;89.20;;;;;;5076125;28;19945;-56
2022/10/08 14:04:37;;;;;;;;;;;19.50;91.10;;;;;;5084433;28;19927;-55
2022/10/08 14:07:10;;;;;;;;;;;19.00;91.00;;;;;;5071089;28;19936;-55
2022/10/08 14:09:37;;;;;;;;;;;18.50;90.70;;;;;;5090209;28;20050;-55
2022/10/08 14:12:07;;;;;;;;;;;18.00;91.50;;;;;;5089266;28;19928;-55
2022/10/08 14:14:34;;;;;;;;;;;17.50;92.10;;;;;;5090908;28;19924;-55
2022/10/08 14:17:01;;;;;;;;;;;17.20;92.80;;;;;;5075540;28;19924;-55
2022/10/08 14:19:29;;;;;;;;;;;17.00;93.10;;;;;;5089999;28;19931;-56
2022/10/08 14:21:56;;;;;;;;;;;16.70;93.50;;;;;;5080464;28;20433;-55
2022/10/08 14:24:24;;;;;;;;;;;16.60;94.20;;;;;;5078017;28;20181;-56
2022/10/08 14:26:52;;;;;;;;;;;16.40;93.90;;;;;;5067864;28;19947;-55
2022/10/08 14:29:19;;;;;;;;;;;16.30;93.60;;;;;;5079731;28;19924;-56
2022/10/08 14:31:46;;;;;;;;;;;16.10;94.10;;;;;;5069671;28;19948;-55
2022/10/08 14:34:14;;;;;;;;;;;16.00;94.00;;;;;;5082106;28;19923;-55
2022/10/08 14:36:41;;;;;;;;;;;15.90;94.70;;;;;;5110270;28;19923;-56
2022/10/08 14:39:09;;;;;;;;;;;15.80;94.90;;;;;;5077997;28;19931;-55
2022/10/08 14:41:38;;;;;;;;;;;15.80;95.60;;;;;;5071476;28;19924;-55
2022/10/08 14:44:06;;;;;;;;;;;15.80;95.90;;;;;;5081292;28;20308;-56